Weather at San Diego International Airport

Public forecast

Using degrees Fahrenheit for public forecast. Weather courtesy of forecast.io.

Current aviation weather report (METAR) for San Diego International Airport

Retrieved 2022/07/06 02:51 UTC (37 minutes ago):

KSAN 060251Z VRB06KT 10SM BKN018 20/16 A2994 RMK AO2 SLP137 T02000156 53000

Aviation forecast (TAF) for San Diego International Airport

Retrieved 2022-07-06 00:24 UTC (3 hours ago):

TAF KSAN 052321Z 0600/0706 28009KT P6SM SCT021 FM060200 29005KT P6SM OVC021 FM060800 VRB04KT P6SM OVC018 FM061730 28005KT P6SM SCT020 FM061900 29011KT P6SM FEW020 FM070200 VRB05KT P6SM BKN015